sensor_id;sensor_type;location;lat;lon;timestamp;pressure;altitude;pressure_sealevel;temperature;humidity
20160;BME280;50187;50.492;12.134;2023-11-25T00:02:09;95972.13;;;21.58;32.15
20160;BME280;50187;50.492;12.134;2023-11-25T00:04:54;95980.03;;;21.60;32.28
20160;BME280;50187;50.492;12.134;2023-11-25T00:07:39;95978.59;;;21.64;32.03
20160;BME280;50187;50.492;12.134;2023-11-25T00:10:24;95986.91;;;21.63;32.26
20160;BME280;50187;50.492;12.134;2023-11-25T00:13:10;95987.13;;;21.61;32.34
20160;BME280;50187;50.492;12.134;2023-11-25T00:15:56;95994.22;;;21.62;32.26
20160;BME280;50187;50.492;12.134;2023-11-25T00:18:41;96001.06;;;21.65;32.29
20160;BME280;50187;50.492;12.134;2023-11-25T00:21:26;96007.94;;;21.60;32.20
20160;BME280;50187;50.492;12.134;2023-11-25T00:24:12;96017.72;;;21.61;32.10
20160;BME280;50187;50.492;12.134;2023-11-25T00:26:57;96022.91;;;21.63;32.02
20160;BME280;50187;50.492;12.134;2023-11-25T00:29:43;96042.47;;;21.58;32.35
20160;BME280;50187;50.492;12.134;2023-11-25T00:32:29;96048.53;;;21.60;32.07
20160;BME280;50187;50.492;12.134;2023-11-25T00:35:14;96062.66;;;21.63;32.25
20160;BME280;50187;50.492;12.134;2023-11-25T00:38:00;96071.00;;;21.61;32.32
20160;BME280;50187;50.492;12.134;2023-11-25T00:40:46;96075.59;;;21.60;32.17
20160;BME280;50187;50.492;12.134;2023-11-25T00:43:32;96091.41;;;21.64;32.14
20160;BME280;50187;50.492;12.134;2023-11-25T00:46:17;96095.13;;;21.63;32.05
20160;BME280;50187;50.492;12.134;2023-11-25T00:49:03;96104.91;;;21.57;32.30
20160;BME280;50187;50.492;12.134;2023-11-25T00:51:50;96102.22;;;21.57;32.32
20160;BME280;50187;50.492;12.134;2023-11-25T00:54:35;96118.88;;;21.60;32.00
20160;BME280;50187;50.492;12.134;2023-11-25T00:57:20;96128.03;;;21.59;32.00
20160;BME280;50187;50.492;12.134;2023-11-25T01:00:06;96129.28;;;21.57;32.18
20160;BME280;50187;50.492;12.134;2023-11-25T01:02:55;96135.13;;;21.60;32.25
20160;BME280;50187;50.492;12.134;2023-11-25T01:05:41;96141.13;;;21.63;31.97
20160;BME280;50187;50.492;12.134;2023-11-25T01:08:27;96150.72;;;21.58;31.93
20160;BME280;50187;50.492;12.134;2023-11-25T01:11:16;96161.09;;;21.61;32.14
20160;BME280;50187;50.492;12.134;2023-11-25T01:14:01;96163.59;;;21.63;32.10
20160;BME280;50187;50.492;12.134;2023-11-25T01:16:49;96172.56;;;21.64;32.17
20160;BME280;50187;50.492;12.134;2023-11-25T01:19:36;96182.13;;;21.59;32.20
20160;BME280;50187;50.492;12.134;2023-11-25T01:22:21;96184.63;;;21.61;32.24
20160;BME280;50187;50.492;12.134;2023-11-25T01:25:07;96197.97;;;21.63;32.08
20160;BME280;50187;50.492;12.134;2023-11-25T01:27:52;96195.88;;;21.58;32.05
20160;BME280;50187;50.492;12.134;2023-11-25T01:30:39;96207.53;;;21.58;31.95
20160;BME280;50187;50.492;12.134;2023-11-25T01:33:24;96224.00;;;21.64;31.96
20160;BME280;50187;50.492;12.134;2023-11-25T01:36:10;96233.13;;;21.63;32.05
20160;BME280;50187;50.492;12.134;2023-11-25T01:38:56;96230.19;;;21.57;31.97
20160;BME280;50187;50.492;12.134;2023-11-25T01:41:42;96252.06;;;21.63;31.86
20160;BME280;50187;50.492;12.134;2023-11-25T01:44:29;96251.03;;;21.64;31.86
20160;BME280;50187;50.492;12.134;2023-11-25T01:47:14;96250.81;;;21.58;32.18
20160;BME280;50187;50.492;12.134;2023-11-25T01:50:00;96248.09;;;21.58;31.91
20160;BME280;50187;50.492;12.134;2023-11-25T01:52:48;96265.00;;;21.60;32.14
20160;BME280;50187;50.492;12.134;2023-11-25T01:55:35;96267.25;;;21.57;32.18
20160;BME280;50187;50.492;12.134;2023-11-25T01:58:20;96276.19;;;21.57;31.95
20160;BME280;50187;50.492;12.134;2023-11-25T02:01:06;96274.56;;;21.56;31.94
20160;BME280;50187;50.492;12.134;2023-11-25T02:03:52;96287.47;;;21.61;32.13
20160;BME280;50187;50.492;12.134;2023-11-25T02:06:37;96283.69;;;21.55;31.94
20160;BME280;50187;50.492;12.134;2023-11-25T02:09:22;96282.03;;;21.54;32.25
20160;BME280;50187;50.492;12.134;2023-11-25T02:12:09;96294.09;;;21.58;31.99
20160;BME280;50187;50.492;12.134;2023-11-25T02:14:56;96291.59;;;21.57;31.92
20160;BME280;50187;50.492;12.134;2023-11-25T02:17:43;96289.31;;;21.54;31.95
20160;BME280;50187;50.492;12.134;2023-11-25T02:20:31;96288.28;;;21.55;31.79
20160;BME280;50187;50.492;12.134;2023-11-25T02:23:21;96301.59;;;21.56;32.09
20160;BME280;50187;50.492;12.134;2023-11-25T02:26:09;96301.34;;;21.51;32.10
20160;BME280;50187;50.492;12.134;2023-11-25T02:28:55;96310.75;;;21.55;31.86
20160;BME280;50187;50.492;12.134;2023-11-25T02:31:40;96310.78;;;21.62;31.86
20160;BME280;50187;50.492;12.134;2023-11-25T02:34:28;96316.97;;;21.56;31.85
20160;BME280;50187;50.492;12.134;2023-11-25T02:37:14;96323.25;;;21.56;31.86
20160;BME280;50187;50.492;12.134;2023-11-25T02:40:01;96327.22;;;21.60;31.85
20160;BME280;50187;50.492;12.134;2023-11-25T02:42:47;96333.88;;;21.58;32.11
20160;BME280;50187;50.492;12.134;2023-11-25T02:45:33;96340.25;;;21.50;31.88
20160;BME280;50187;50.492;12.134;2023-11-25T02:48:18;96346.94;;;21.54;31.95
20160;BME280;50187;50.492;12.134;2023-11-25T02:51:07;96356.34;;;21.58;31.79
20160;BME280;50187;50.492;12.134;2023-11-25T02:53:52;96349.22;;;21.51;32.09
20160;BME280;50187;50.492;12.134;2023-11-25T02:56:37;96357.97;;;21.53;31.82
20160;BME280;50187;50.492;12.134;2023-11-25T02:59:23;96357.56;;;21.56;32.09
20160;BME280;50187;50.492;12.134;2023-11-25T03:02:08;96371.31;;;21.54;31.86
20160;BME280;50187;50.492;12.134;2023-11-25T03:04:55;96378.97;;;21.51;31.98
20160;BME280;50187;50.492;12.134;2023-11-25T03:07:41;96365.91;;;21.54;31.93
20160;BME280;50187;50.492;12.134;2023-11-25T03:10:27;96372.34;;;21.53;31.86
20160;BME280;50187;50.492;12.134;2023-11-25T03:13:13;96378.97;;;21.51;32.13
20160;BME280;50187;50.492;12.134;2023-11-25T03:15:58;96380.81;;;21.50;32.16
20160;BME280;50187;50.492;12.134;2023-11-25T03:18:46;96381.91;;;21.56;31.74
20160;BME280;50187;50.492;12.134;2023-11-25T03:21:31;96391.47;;;21.52;32.07
20160;BME280;50187;50.492;12.134;2023-11-25T03:24:19;96398.72;;;21.51;32.02
20160;BME280;50187;50.492;12.134;2023-11-25T03:27:07;96407.31;;;21.55;32.08
20160;BME280;50187;50.492;12.134;2023-11-25T03:29:53;96400.03;;;21.55;31.79
20160;BME280;50187;50.492;12.134;2023-11-25T03:32:39;96405.38;;;21.49;31.79
20160;BME280;50187;50.492;12.134;2023-11-25T03:35:24;96409.19;;;21.54;31.90
20160;BME280;50187;50.492;12.134;2023-11-25T03:38:10;96417.31;;;21.54;31.77
20160;BME280;50187;50.492;12.134;2023-11-25T03:40:56;96423.94;;;21.52;31.77
20160;BME280;50187;50.492;12.134;2023-11-25T03:43:41;96420.78;;;21.48;31.78
20160;BME280;50187;50.492;12.134;2023-11-25T03:46:26;96438.13;;;21.54;31.86
20160;BME280;50187;50.492;12.134;2023-11-25T03:49:12;96443.31;;;21.55;31.72
20160;BME280;50187;50.492;12.134;2023-11-25T03:51:58;96444.56;;;21.53;31.84
20160;BME280;50187;50.492;12.134;2023-11-25T03:54:43;96440.16;;;21.52;32.04
20160;BME280;50187;50.492;12.134;2023-11-25T03:57:28;96448.75;;;21.55;31.89
20160;BME280;50187;50.492;12.134;2023-11-25T04:00:14;96456.66;;;21.57;31.64
20160;BME280;50187;50.492;12.134;2023-11-25T04:03:01;96451.44;;;21.55;31.89
20160;BME280;50187;50.492;12.134;2023-11-25T04:05:47;96452.06;;;21.57;31.98
20160;BME280;50187;50.492;12.134;2023-11-25T04:08:33;96453.13;;;21.56;31.99
20160;BME280;50187;50.492;12.134;2023-11-25T04:11:18;96469.06;;;21.51;31.76
20160;BME280;50187;50.492;12.134;2023-11-25T04:14:04;96470.38;;;21.55;31.70
20160;BME280;50187;50.492;12.134;2023-11-25T04:16:50;96463.28;;;21.54;31.71
20160;BME280;50187;50.492;12.134;2023-11-25T04:19:36;96455.75;;;21.50;31.61
20160;BME280;50187;50.492;12.134;2023-11-25T04:22:21;96457.44;;;21.51;31.97
20160;BME280;50187;50.492;12.134;2023-11-25T04:25:07;96458.53;;;21.56;31.76
20160;BME280;50187;50.492;12.134;2023-11-25T04:27:53;96455.19;;;21.54;31.93
20160;BME280;50187;50.492;12.134;2023-11-25T04:30:38;96469.75;;;21.53;31.68
20160;BME280;50187;50.492;12.134;2023-11-25T04:33:24;96462.19;;;21.49;31.78
20160;BME280;50187;50.492;12.134;2023-11-25T04:36:10;96476.81;;;21.54;31.88
20160;BME280;50187;50.492;12.134;2023-11-25T04:38:55;96469.28;;;21.50;31.92
20160;BME280;50187;50.492;12.134;2023-11-25T04:41:43;96490.72;;;21.51;31.63
20160;BME280;50187;50.492;12.134;2023-11-25T04:44:28;96509.28;;;21.54;31.60
20160;BME280;50187;50.492;12.134;2023-11-25T04:47:14;96514.69;;;21.54;31.56
20160;BME280;50187;50.492;12.134;2023-11-25T04:49:59;96520.47;;;21.51;31.76
20160;BME280;50187;50.492;12.134;2023-11-25T04:52:44;96520.13;;;21.54;31.61
20160;BME280;50187;50.492;12.134;2023-11-25T04:55:30;96525.53;;;21.54;31.74
20160;BME280;50187;50.492;12.134;2023-11-25T04:58:15;96524.63;;;21.47;31.76
20160;BME280;50187;50.492;12.134;2023-11-25T05:01:01;96528.22;;;21.54;31.98
20160;BME280;50187;50.492;12.134;2023-11-25T05:03:47;96524.56;;;21.62;31.92
20160;BME280;50187;50.492;12.134;2023-11-25T05:06:32;96525.84;;;21.66;31.66
20160;BME280;50187;50.492;12.134;2023-11-25T05:09:17;96531.31;;;21.79;31.34
20160;BME280;50187;50.492;12.134;2023-11-25T05:12:04;96536.13;;;21.84;31.38
20160;BME280;50187;50.492;12.134;2023-11-25T05:14:51;96534.75;;;21.95;31.40
20160;BME280;50187;50.492;12.134;2023-11-25T05:17:37;96533.53;;;21.98;31.26
20160;BME280;50187;50.492;12.134;2023-11-25T05:20:23;96532.09;;;22.02;31.41
20160;BME280;50187;50.492;12.134;2023-11-25T05:23:08;96542.75;;;22.10;31.18
20160;BME280;50187;50.492;12.134;2023-11-25T05:25:53;96550.88;;;22.10;31.24
20160;BME280;50187;50.492;12.134;2023-11-25T05:28:39;96548.78;;;22.12;31.29
20160;BME280;50187;50.492;12.134;2023-11-25T05:31:25;96551.53;;;22.19;31.06
20160;BME280;50187;50.492;12.134;2023-11-25T05:34:11;96545.94;;;22.20;31.01
20160;BME280;50187;50.492;12.134;2023-11-25T05:36:58;96550.31;;;22.21;31.03
20160;BME280;50187;50.492;12.134;2023-11-25T05:39:43;96548.69;;;22.27;31.06
20160;BME280;50187;50.492;12.134;2023-11-25T05:42:30;96551.59;;;22.25;30.76
20160;BME280;50187;50.492;12.134;2023-11-25T05:45:16;96543.84;;;22.22;31.14
20160;BME280;50187;50.492;12.134;2023-11-25T05:48:04;96560.75;;;22.24;30.93
20160;BME280;50187;50.492;12.134;2023-11-25T05:50:49;96574.28;;;22.24;30.73
20160;BME280;50187;50.492;12.134;2023-11-25T05:53:35;96564.06;;;22.20;30.79
20160;BME280;50187;50.492;12.134;2023-11-25T05:56:20;96561.56;;;22.18;30.86
20160;BME280;50187;50.492;12.134;2023-11-25T05:59:06;96546.97;;;22.19;30.92
20160;BME280;50187;50.492;12.134;2023-11-25T06:01:55;96554.47;;;22.17;31.08
20160;BME280;50187;50.492;12.134;2023-11-25T06:04:41;96534.63;;;22.10;31.08
20160;BME280;50187;50.492;12.134;2023-11-25T06:07:28;96546.13;;;22.19;31.05
20160;BME280;50187;50.492;12.134;2023-11-25T06:10:14;96554.00;;;22.13;30.79
20160;BME280;50187;50.492;12.134;2023-11-25T06:13:00;96559.63;;;22.12;30.95
20160;BME280;50187;50.492;12.134;2023-11-25T06:15:45;96550.88;;;22.10;31.21
20160;BME280;50187;50.492;12.134;2023-11-25T06:18:31;96550.22;;;22.08;31.13
20160;BME280;50187;50.492;12.134;2023-11-25T06:21:16;96557.72;;;22.06;31.22
20160;BME280;50187;50.492;12.134;2023-11-25T06:24:02;96560.84;;;22.03;31.03
20160;BME280;50187;50.492;12.134;2023-11-25T06:26:49;96550.88;;;22.10;31.21
20160;BME280;50187;50.492;12.134;2023-11-25T06:29:35;96564.22;;;22.11;31.13
20160;BME280;50187;50.492;12.134;2023-11-25T06:32:22;96578.59;;;22.12;30.92
20160;BME280;50187;50.492;12.134;2023-11-25T06:35:09;96568.78;;;22.11;30.85
20160;BME280;50187;50.492;12.134;2023-11-25T06:37:55;96565.91;;;22.12;31.10
20160;BME280;50187;50.492;12.134;2023-11-25T06:40:40;96569.84;;;22.10;31.11
20160;BME280;50187;50.492;12.134;2023-11-25T06:43:26;96570.88;;;22.09;31.00
20160;BME280;50187;50.492;12.134;2023-11-25T06:46:11;96581.94;;;22.14;30.85
20160;BME280;50187;50.492;12.134;2023-11-25T06:48:57;96590.06;;;22.14;31.13
20160;BME280;50187;50.492;12.134;2023-11-25T06:51:43;96595.50;;;22.14;30.86
20160;BME280;50187;50.492;12.134;2023-11-25T06:54:28;96598.41;;;22.19;30.76
20160;BME280;50187;50.492;12.134;2023-11-25T06:57:13;96589.47;;;22.19;30.73
20160;BME280;50187;50.492;12.134;2023-11-25T07:00:00;96587.16;;;22.16;31.06
20160;BME280;50187;50.492;12.134;2023-11-25T07:02:45;96582.16;;;22.19;30.92
20160;BME280;50187;50.492;12.134;2023-11-25T07:05:31;96593.41;;;22.16;30.98
20160;BME280;50187;50.492;12.134;2023-11-25T07:08:17;96591.09;;;22.13;31.14
20160;BME280;50187;50.492;12.134;2023-11-25T07:11:02;96596.78;;;22.18;30.75
20160;BME280;50187;50.492;12.134;2023-11-25T07:13:50;96596.13;;;22.16;30.95
20160;BME280;50187;50.492;12.134;2023-11-25T07:16:36;96593.41;;;22.16;30.95
20160;BME280;50187;50.492;12.134;2023-11-25T07:19:21;96595.91;;;22.18;30.85
20160;BME280;50187;50.492;12.134;2023-11-25T07:22:10;96590.28;;;22.12;30.75
20160;BME280;50187;50.492;12.134;2023-11-25T07:24:56;96597.34;;;22.13;30.79
20160;BME280;50187;50.492;12.134;2023-11-25T07:27:42;96599.03;;;22.15;30.93
20160;BME280;50187;50.492;12.134;2023-11-25T07:30:30;96592.97;;;22.12;31.08
20160;BME280;50187;50.492;12.134;2023-11-25T07:33:15;96588.59;;;22.11;31.08
20160;BME280;50187;50.492;12.134;2023-11-25T07:36:01;96592.97;;;22.12;30.82
20160;BME280;50187;50.492;12.134;2023-11-25T07:38:46;96590.66;;;22.09;30.98
20160;BME280;50187;50.492;12.134;2023-11-25T07:41:31;96602.75;;;22.13;30.88
20160;BME280;50187;50.492;12.134;2023-11-25T07:44:22;96598.63;;;22.18;30.64
20160;BME280;50187;50.492;12.134;2023-11-25T07:47:09;96600.06;;;22.13;30.80
20160;BME280;50187;50.492;12.134;2023-11-25T07:49:54;96596.13;;;22.16;30.72
20160;BME280;50187;50.492;12.134;2023-11-25T07:52:39;96601.13;;;22.19;30.75
20160;BME280;50187;50.492;12.134;2023-11-25T07:55:25;96595.09;;;22.17;30.83
20160;BME280;50187;50.492;12.134;2023-11-25T07:58:10;96598.81;;;22.16;30.81
20160;BME280;50187;50.492;12.134;2023-11-25T08:00:56;96598.81;;;22.16;30.98
20160;BME280;50187;50.492;12.134;2023-11-25T08:03:43;96596.94;;;22.17;30.90
20160;BME280;50187;50.492;12.134;2023-11-25T08:06:28;96599.06;;;22.21;30.71
20160;BME280;50187;50.492;12.134;2023-11-25T08:09:14;96600.91;;;22.21;30.94
20160;BME280;50187;50.492;12.134;2023-11-25T08:12:00;96589.47;;;22.19;30.65
20160;BME280;50187;50.492;12.134;2023-11-25T08:14:45;96578.03;;;22.23;30.77
20160;BME280;50187;50.492;12.134;2023-11-25T08:17:32;96576.34;;;22.22;30.58
20160;BME280;50187;50.492;12.134;2023-11-25T08:20:17;96566.78;;;22.20;30.71
20160;BME280;50187;50.492;12.134;2023-11-25T08:23:02;96567.59;;;22.20;30.58
20160;BME280;50187;50.492;12.134;2023-11-25T08:25:49;96570.06;;;22.15;30.60
20160;BME280;50187;50.492;12.134;2023-11-25T08:28:35;96582.97;;;22.13;30.90
20160;BME280;50187;50.492;12.134;2023-11-25T08:31:21;96580.88;;;22.15;30.93
20160;BME280;50187;50.492;12.134;2023-11-25T08:34:07;96572.75;;;22.15;30.69
20160;BME280;50187;50.492;12.134;2023-11-25T08:36:57;96572.53;;;22.10;30.67
20160;BME280;50187;50.492;12.134;2023-11-25T08:39:42;96581.13;;;22.20;30.74
20160;BME280;50187;50.492;12.134;2023-11-25T08:42:28;96567.78;;;22.19;30.75
20160;BME280;50187;50.492;12.134;2023-11-25T08:45:15;96564.25;;;22.18;30.69
20160;BME280;50187;50.492;12.134;2023-11-25T08:48:01;96559.28;;;22.22;30.64
20160;BME280;50187;50.492;12.134;2023-11-25T08:50:46;96566.16;;;22.24;30.69
20160;BME280;50187;50.492;12.134;2023-11-25T08:53:32;96562.59;;;22.17;30.86
20160;BME280;50187;50.492;12.134;2023-11-25T08:56:17;96568.63;;;22.19;30.87
20160;BME280;50187;50.492;12.134;2023-11-25T08:59:03;96556.31;;;22.17;30.63
20160;BME280;50187;50.492;12.134;2023-11-25T09:01:51;96549.25;;;22.16;30.79
20160;BME280;50187;50.492;12.134;2023-11-25T09:04:39;96548.63;;;22.20;30.75
20160;BME280;50187;50.492;12.134;2023-11-25T09:07:27;96533.41;;;22.19;30.61
20160;BME280;50187;50.492;12.134;2023-11-25T09:10:14;96539.22;;;22.16;30.67
20160;BME280;50187;50.492;12.134;2023-11-25T09:13:00;96529.69;;;22.20;30.76
20160;BME280;50187;50.492;12.134;2023-11-25T09:15:45;96529.88;;;22.19;30.85
20160;BME280;50187;50.492;12.134;2023-11-25T09:18:31;96525.69;;;22.16;30.96
20160;BME280;50187;50.492;12.134;2023-11-25T09:21:16;96519.25;;;22.17;30.91
20160;BME280;50187;50.492;12.134;2023-11-25T09:24:02;96517.78;;;22.15;30.66
20160;BME280;50187;50.492;12.134;2023-11-25T09:26:47;96535.47;;;22.10;30.89
20160;BME280;50187;50.492;12.134;2023-11-25T09:29:33;96515.88;;;22.15;30.92
20160;BME280;50187;50.492;12.134;2023-11-25T09:32:19;96522.38;;;22.14;30.92
20160;BME280;50187;50.492;12.134;2023-11-25T09:35:06;96526.72;;;22.15;30.96
20160;BME280;50187;50.492;12.134;2023-11-25T09:38:01;96526.97;;;22.20;30.82
20160;BME280;50187;50.492;12.134;2023-11-25T09:40:51;96517.56;;;22.16;30.63
20160;BME280;50187;50.492;12.134;2023-11-25T09:43:40;96514.84;;;22.16;30.83
20160;BME280;50187;50.492;12.134;2023-11-25T09:46:29;96512.41;;;22.21;30.80
20160;BME280;50187;50.492;12.134;2023-11-25T09:49:16;96503.41;;;22.21;30.62
20160;BME280;50187;50.492;12.134;2023-11-25T09:52:18;96498.19;;;22.19;30.85
20160;BME280;50187;50.492;12.134;2023-11-25T09:55:07;96491.75;;;22.20;30.61
20160;BME280;50187;50.492;12.134;2023-11-25T09:58:05;96489.03;;;22.20;30.82
20160;BME280;50187;50.492;12.134;2023-11-25T10:00:55;96482.38;;;22.16;30.61
20160;BME280;50187;50.492;12.134;2023-11-25T10:03:43;96485.06;;;22.16;30.88
20160;BME280;50187;50.492;12.134;2023-11-25T10:06:31;96475.06;;;22.17;30.56
20160;BME280;50187;50.492;12.134;2023-11-25T10:09:16;96467.34;;;22.13;30.89
20160;BME280;50187;50.492;12.134;2023-11-25T10:12:02;96467.13;;;22.15;30.92
20160;BME280;50187;50.492;12.134;2023-11-25T10:14:47;96472.97;;;22.12;30.86
20160;BME280;50187;50.492;12.134;2023-11-25T10:17:33;96459.44;;;22.12;30.73
20160;BME280;50187;50.492;12.134;2023-11-25T10:20:20;96461.72;;;22.15;30.91
20160;BME280;50187;50.492;12.134;2023-11-25T10:23:07;96457.56;;;22.19;30.78
20160;BME280;50187;50.492;12.134;2023-11-25T10:25:54;96452.56;;;22.16;30.62
20160;BME280;50187;50.492;12.134;2023-11-25T10:28:40;96448.00;;;22.23;30.81
20160;BME280;50187;50.492;12.134;2023-11-25T10:31:26;96449.47;;;22.26;30.53
20160;BME280;50187;50.492;12.134;2023-11-25T10:34:15;96452.19;;;22.26;30.61
20160;BME280;50187;50.492;12.134;2023-11-25T10:37:02;96448.03;;;22.30;30.60
20160;BME280;50187;50.492;12.134;2023-11-25T10:39:51;96449.91;;;22.29;30.64
20160;BME280;50187;50.492;12.134;2023-11-25T10:42:43;96438.03;;;22.30;30.60
20160;BME280;50187;50.492;12.134;2023-11-25T10:45:28;96437.81;;;22.25;30.91
20160;BME280;50187;50.492;12.134;2023-11-25T10:48:13;96433.00;;;22.21;31.14
20160;BME280;50187;50.492;12.134;2023-11-25T10:51:00;96436.56;;;22.21;31.09
20160;BME280;50187;50.492;12.134;2023-11-25T10:53:46;96433.19;;;22.19;31.48
20160;BME280;50187;50.492;12.134;2023-11-25T10:56:34;96438.00;;;22.17;31.82
20160;BME280;50187;50.492;12.134;2023-11-25T10:59:20;96436.09;;;22.18;31.63
20160;BME280;50187;50.492;12.134;2023-11-25T11:02:29;96431.94;;;22.15;31.58
20160;BME280;50187;50.492;12.134;2023-11-25T11:05:39;96431.94;;;22.15;31.78
20160;BME280;50187;50.492;12.134;2023-11-25T11:08:31;96423.59;;;22.10;31.63
20160;BME280;50187;50.492;12.134;2023-11-25T11:14:12;96405.91;;;22.14;31.93
20160;BME280;50187;50.492;12.134;2023-11-25T11:17:04;96408.19;;;22.17;32.39
20160;BME280;50187;50.492;12.134;2023-11-25T11:19:50;96397.38;;;22.17;31.84
20160;BME280;50187;50.492;12.134;2023-11-25T11:22:42;96393.00;;;22.23;31.83
20160;BME280;50187;50.492;12.134;2023-11-25T11:25:51;96396.97;;;22.27;31.67
20160;BME280;50187;50.492;12.134;2023-11-25T11:34:29;96359.66;;;22.29;31.38
20160;BME280;50187;50.492;12.134;2023-11-25T11:37:15;96350.13;;;22.33;31.67
20160;BME280;50187;50.492;12.134;2023-11-25T11:40:00;96351.59;;;22.36;31.68
20160;BME280;50187;50.492;12.134;2023-11-25T11:42:46;96344.09;;;22.38;31.60
20160;BME280;50187;50.492;12.134;2023-11-25T11:45:32;96349.50;;;22.38;31.49
20160;BME280;50187;50.492;12.134;2023-11-25T11:48:17;96351.81;;;22.41;31.52
20160;BME280;50187;50.492;12.134;2023-11-25T11:51:08;96361.59;;;22.42;31.55
20160;BME280;50187;50.492;12.134;2023-11-25T11:57:07;96354.91;;;22.38;31.42
20160;BME280;50187;50.492;12.134;2023-11-25T12:00:00;96360.16;;;22.46;31.20
20160;BME280;50187;50.492;12.134;2023-11-25T12:02:48;96353.91;;;22.45;31.20
20160;BME280;50187;50.492;12.134;2023-11-25T12:05:35;96362.66;;;22.47;31.23
20160;BME280;50187;50.492;12.134;2023-11-25T12:08:20;96349.75;;;22.50;31.14
20160;BME280;50187;50.492;12.134;2023-11-25T12:11:06;96358.06;;;22.55;31.48
20160;BME280;50187;50.492;12.134;2023-11-25T12:13:51;96349.31;;;22.53;31.83
20160;BME280;50187;50.492;12.134;2023-11-25T12:16:38;96356.63;;;22.52;31.61
20160;BME280;50187;50.492;12.134;2023-11-25T12:19:24;96350.56;;;22.57;31.70
20160;BME280;50187;50.492;12.134;2023-11-25T12:22:10;96347.88;;;22.63;31.79
20160;BME280;50187;50.492;12.134;2023-11-25T12:24:56;96347.25;;;22.68;31.79
20160;BME280;50187;50.492;12.134;2023-11-25T12:30:46;96339.53;;;22.72;31.78
20160;BME280;50187;50.492;12.134;2023-11-25T12:33:34;96338.47;;;22.73;31.99
20160;BME280;50187;50.492;12.134;2023-11-25T12:36:19;96332.63;;;22.76;31.38
20160;BME280;50187;50.492;12.134;2023-11-25T12:39:06;96338.69;;;22.78;31.33
20160;BME280;50187;50.492;12.134;2023-11-25T12:41:57;96327.63;;;22.79;31.25
20160;BME280;50187;50.492;12.134;2023-11-25T12:44:52;96333.25;;;22.78;31.11
20160;BME280;50187;50.492;12.134;2023-11-25T12:47:48;96327.41;;;22.74;30.91
20160;BME280;50187;50.492;12.134;2023-11-25T12:51:02;96322.22;;;22.73;31.01
20160;BME280;50187;50.492;12.134;2023-11-25T12:53:53;96329.09;;;22.69;30.65
20160;BME280;50187;50.492;12.134;2023-11-25T12:56:40;96337.25;;;22.62;30.88
20160;BME280;50187;50.492;12.134;2023-11-25T12:59:26;96338.47;;;22.59;30.91
20160;BME280;50187;50.492;12.134;2023-11-25T13:02:14;96332.63;;;22.56;30.83
20160;BME280;50187;50.492;12.134;2023-11-25T13:05:02;96324.50;;;22.49;30.86
20160;BME280;50187;50.492;12.134;2023-11-25T13:07:49;96324.72;;;22.47;30.87
20160;BME280;50187;50.492;12.134;2023-11-25T13:10:35;96334.72;;;22.40;31.13
20160;BME280;50187;50.492;12.134;2023-11-25T13:13:23;96331.19;;;22.40;31.21
20160;BME280;50187;50.492;12.134;2023-11-25T13:16:11;96336.81;;;22.38;31.50
20160;BME280;50187;50.492;12.134;2023-11-25T13:18:58;96334.53;;;22.35;32.08
20160;BME280;50187;50.492;12.134;2023-11-25T13:21:43;96336.75;;;22.32;32.20
20160;BME280;50187;50.492;12.134;2023-11-25T13:24:29;96338.66;;;22.31;32.13
20160;BME280;50187;50.492;12.134;2023-11-25T13:27:15;96341.78;;;22.28;32.20
20160;BME280;50187;50.492;12.134;2023-11-25T13:30:01;96344.88;;;22.25;31.70
20160;BME280;50187;50.492;12.134;2023-11-25T13:32:46;96351.97;;;22.26;31.95
20160;BME280;50187;50.492;12.134;2023-11-25T13:35:31;96341.75;;;22.21;31.48
20160;BME280;50187;50.492;12.134;2023-11-25T13:38:18;96350.91;;;22.20;31.52
20160;BME280;50187;50.492;12.134;2023-11-25T13:41:04;96343.81;;;22.19;31.62
20160;BME280;50187;50.492;12.134;2023-11-25T13:43:49;96353.84;;;22.19;31.56
20160;BME280;50187;50.492;12.134;2023-11-25T13:46:34;96354.03;;;22.17;31.51
20160;BME280;50187;50.492;12.134;2023-11-25T13:49:20;96345.91;;;22.17;31.33
20160;BME280;50187;50.492;12.134;2023-11-25T13:52:05;96342.56;;;22.15;31.41
20160;BME280;50187;50.492;12.134;2023-11-25T13:54:51;96347.16;;;22.15;31.41
20160;BME280;50187;50.492;12.134;2023-11-25T13:57:36;96355.69;;;22.11;31.57
20160;BME280;50187;50.492;12.134;2023-11-25T14:00:23;96360.06;;;22.12;31.57
20160;BME280;50187;50.492;12.134;2023-11-25T14:03:11;96360.66;;;22.08;31.33
20160;BME280;50187;50.492;12.134;2023-11-25T14:05:58;96356.31;;;22.07;31.64
20160;BME280;50187;50.492;12.134;2023-11-25T14:08:44;96357.97;;;22.08;31.52
20160;BME280;50187;50.492;12.134;2023-11-25T14:11:29;96355.47;;;22.06;31.44
20160;BME280;50187;50.492;12.134;2023-11-25T14:14:16;96365.47;;;22.06;31.38
20160;BME280;50187;50.492;12.134;2023-11-25T14:17:02;96357.13;;;22.07;31.50
20160;BME280;50187;50.492;12.134;2023-11-25T14:19:47;96357.34;;;22.06;31.49
20160;BME280;50187;50.492;12.134;2023-11-25T14:22:34;96352.97;;;22.05;31.43
20160;BME280;50187;50.492;12.134;2023-11-25T14:25:19;96347.13;;;22.08;31.46
20160;BME280;50187;50.492;12.134;2023-11-25T14:28:05;96354.00;;;22.04;31.31
20160;BME280;50187;50.492;12.134;2023-11-25T14:30:50;96349.84;;;22.08;31.23
20160;BME280;50187;50.492;12.134;2023-11-25T14:33:35;96346.72;;;22.11;31.45
20160;BME280;50187;50.492;12.134;2023-11-25T14:36:20;96349.63;;;22.09;31.14
20160;BME280;50187;50.492;12.134;2023-11-25T14:39:06;96346.72;;;22.11;31.09
20160;BME280;50187;50.492;12.134;2023-11-25T14:41:53;96352.13;;;22.11;31.37
20160;BME280;50187;50.492;12.134;2023-11-25T14:44:39;96343.19;;;22.10;31.39
20160;BME280;50187;50.492;12.134;2023-11-25T14:47:24;96340.69;;;22.09;31.35